createdAt,value
2019-03-08T00:00:01.985Z,11.20
2019-03-08T00:00:45.278Z,10.87
2019-03-08T00:01:31.057Z,10.90
2019-03-08T00:02:10.950Z,10.55
2019-03-08T00:02:49.550Z,11.43
2019-03-08T00:03:28.303Z,11.23
2019-03-08T00:04:06.963Z,11.00
2019-03-08T00:04:45.651Z,11.40
2019-03-08T00:05:24.249Z,11.50
2019-03-08T00:06:02.915Z,10.60
2019-03-08T00:06:41.619Z,12.67
2019-03-08T00:07:20.268Z,11.83
2019-03-08T00:07:58.906Z,12.67
2019-03-08T00:08:37.540Z,10.90
2019-03-08T00:09:16.232Z,11.93
2019-03-08T00:09:54.947Z,12.10
2019-03-08T00:10:33.594Z,11.80
2019-03-08T00:11:12.261Z,12.03
2019-03-08T00:11:50.903Z,12.47
2019-03-08T00:12:29.580Z,12.50
2019-03-08T00:13:08.169Z,12.27
2019-03-08T00:13:47.052Z,12.80
2019-03-08T00:14:25.667Z,11.50
2019-03-08T00:15:04.368Z,12.50
2019-03-08T00:15:42.957Z,12.07
2019-03-08T00:16:21.538Z,12.77
2019-03-08T00:17:00.112Z,12.10
2019-03-08T00:17:38.806Z,13.10
2019-03-08T00:18:17.602Z,14.03
2019-03-08T00:18:56.223Z,12.23
2019-03-08T00:19:34.835Z,11.87
2019-03-08T00:20:13.540Z,12.40
2019-03-08T00:20:52.248Z,13.13
2019-03-08T00:21:30.991Z,13.77
2019-03-08T00:22:09.864Z,13.03
2019-03-08T00:22:48.437Z,11.57
2019-03-08T00:23:27.068Z,13.50
2019-03-08T00:24:05.994Z,13.30
2019-03-08T00:24:44.597Z,13.93
2019-03-08T00:25:23.240Z,12.77
2019-03-08T00:26:01.906Z,13.43
2019-03-08T00:26:40.513Z,12.43
2019-03-08T00:27:19.131Z,13.20
2019-03-08T00:27:57.806Z,13.60
2019-03-08T00:28:37.103Z,13.40
2019-03-08T00:29:15.704Z,12.57
2019-03-08T00:29:54.448Z,12.73
2019-03-08T00:30:33.106Z,12.97
2019-03-08T00:31:11.702Z,12.90
2019-03-08T00:31:50.403Z,12.75
2019-03-08T00:32:28.995Z,14.13
2019-03-08T00:33:07.723Z,14.20
2019-03-08T00:33:46.340Z,13.87
2019-03-08T00:34:24.957Z,14.10
2019-03-08T00:35:03.626Z,13.33
2019-03-08T00:35:42.220Z,13.97
2019-03-08T00:36:20.905Z,13.30
2019-03-08T00:36:59.586Z,13.73
2019-03-08T00:37:38.164Z,12.20
2019-03-08T00:38:16.885Z,12.87
2019-03-08T00:38:55.682Z,13.67
2019-03-08T00:39:34.289Z,13.20
2019-03-08T00:40:13.126Z,12.43
2019-03-08T00:40:51.769Z,12.80
2019-03-08T00:41:30.377Z,13.30
2019-03-08T00:42:08.978Z,14.50
2019-03-08T00:42:47.649Z,12.70
2019-03-08T00:43:26.305Z,13.60
2019-03-08T00:44:05.083Z,13.58
2019-03-08T00:44:43.691Z,14.13
2019-03-08T00:45:22.328Z,13.20
2019-03-08T00:46:00.970Z,12.70
2019-03-08T00:46:39.606Z,13.50
2019-03-08T00:47:18.252Z,14.20
2019-03-08T00:47:56.821Z,13.83
2019-03-08T00:48:35.506Z,13.20
2019-03-08T00:49:14.351Z,14.33
2019-03-08T00:49:53.056Z,12.83
2019-03-08T00:50:31.731Z,14.00
2019-03-08T00:51:10.393Z,13.30
2019-03-08T00:51:49.049Z,13.50
2019-03-08T00:52:27.704Z,14.10
2019-03-08T00:53:06.360Z,14.57
2019-03-08T00:53:45.163Z,14.10
2019-03-08T00:54:23.695Z,14.43
2019-03-08T00:55:02.392Z,13.90
2019-03-08T00:55:40.962Z,15.40
2019-03-08T00:56:19.597Z,13.90
2019-03-08T00:56:58.271Z,15.67
2019-03-08T00:57:36.953Z,14.10
2019-03-08T00:58:15.552Z,15.00
2019-03-08T00:58:54.249Z,14.73
2019-03-08T00:59:32.850Z,13.47
2019-03-08T01:00:14.133Z,14.90
2019-03-08T01:00:52.758Z,14.40
2019-03-08T01:01:31.458Z,13.70
2019-03-08T01:02:10.074Z,15.10
2019-03-08T01:02:48.776Z,14.60
2019-03-08T01:03:27.342Z,14.43
2019-03-08T01:04:06.093Z,14.60
2019-03-08T01:04:44.681Z,14.50
2019-03-08T01:05:23.344Z,14.93
2019-03-08T01:06:01.946Z,14.80
2019-03-08T01:06:40.567Z,14.97
2019-03-08T01:07:19.207Z,14.40
2019-03-08T01:07:57.853Z,15.40
2019-03-08T01:08:36.722Z,14.70
2019-03-08T01:09:15.360Z,14.57
2019-03-08T01:09:53.966Z,14.50
2019-03-08T01:10:32.584Z,15.37
2019-03-08T01:11:11.227Z,14.70
2019-03-08T01:11:49.898Z,13.90
2019-03-08T01:12:28.618Z,14.80
2019-03-08T01:13:07.219Z,15.70
2019-03-08T01:13:45.888Z,15.00
2019-03-08T01:14:24.588Z,15.50
2019-03-08T01:15:03.154Z,14.40
2019-03-08T01:15:41.752Z,14.50
2019-03-08T01:16:20.337Z,14.97
2019-03-08T01:16:58.942Z,14.70
2019-03-08T01:17:37.631Z,14.67
2019-03-08T01:18:16.211Z,14.30
2019-03-08T01:18:55.048Z,15.10
2019-03-08T01:19:33.681Z,15.07
2019-03-08T01:20:13.347Z,14.70
2019-03-08T01:20:52.026Z,14.90
2019-03-08T01:21:30.682Z,15.20
2019-03-08T01:22:09.246Z,14.23
2019-03-08T01:22:47.837Z,13.93
2019-03-08T01:23:26.443Z,14.20
2019-03-08T01:24:05.039Z,15.47
2019-03-08T01:24:43.696Z,15.80
2019-03-08T01:25:22.322Z,14.90
2019-03-08T01:26:01.033Z,14.87
2019-03-08T01:26:39.649Z,14.67
2019-03-08T01:27:18.314Z,15.83
2019-03-08T01:28:01.664Z,16.97
2019-03-08T01:28:40.961Z,15.03
2019-03-08T01:29:19.625Z,14.60
2019-03-08T01:29:58.255Z,15.27
2019-03-08T01:30:37.001Z,15.53
2019-03-08T01:31:15.662Z,15.17
2019-03-08T01:31:54.385Z,15.40
2019-03-08T01:32:33.054Z,15.27
2019-03-08T01:33:11.639Z,15.87
2019-03-08T01:33:50.249Z,15.20
2019-03-08T01:34:28.940Z,14.70
2019-03-08T01:35:07.594Z,15.50
2019-03-08T01:35:46.198Z,15.30
2019-03-08T01:36:24.836Z,15.03
2019-03-08T01:37:03.443Z,15.07
2019-03-08T01:37:42.169Z,14.67
2019-03-08T01:38:21.015Z,14.77
2019-03-08T01:38:59.655Z,14.63
2019-03-08T01:39:38.275Z,15.33
2019-03-08T01:40:16.980Z,14.67
2019-03-08T01:40:55.578Z,15.00
2019-03-08T01:41:34.197Z,15.07
2019-03-08T01:42:12.883Z,15.40
2019-03-08T01:42:51.854Z,14.33
2019-03-08T01:43:30.537Z,14.47
2019-03-08T01:44:09.144Z,15.23
2019-03-08T01:44:47.814Z,15.80
2019-03-08T01:45:26.479Z,15.27
2019-03-08T01:46:05.073Z,15.63
2019-03-08T01:46:43.694Z,15.40
2019-03-08T01:47:22.297Z,15.50
2019-03-08T01:48:00.915Z,15.37
2019-03-08T01:48:39.754Z,14.10
2019-03-08T01:49:18.395Z,13.87
2019-03-08T01:49:57.010Z,15.57
2019-03-08T01:50:35.677Z,16.07
2019-03-08T01:51:14.303Z,16.10
2019-03-08T01:51:52.907Z,14.80
2019-03-08T01:52:31.589Z,15.43
2019-03-08T01:53:10.518Z,15.90
2019-03-08T01:53:49.157Z,15.70
2019-03-08T01:54:27.805Z,14.80
2019-03-08T01:55:06.480Z,16.70
2019-03-08T01:55:45.154Z,15.80
2019-03-08T01:56:23.851Z,15.47
2019-03-08T01:57:02.423Z,14.93
2019-03-08T01:57:41.070Z,15.50
2019-03-08T01:58:19.684Z,14.40
2019-03-08T01:58:58.260Z,16.40
2019-03-08T01:59:36.922Z,16.77
2019-03-08T02:00:17.666Z,15.90
2019-03-08T02:00:56.246Z,16.30
2019-03-08T02:01:35.009Z,15.90
2019-03-08T02:02:13.600Z,15.27
2019-03-08T02:02:52.294Z,15.60
2019-03-08T02:03:31.002Z,17.07
2019-03-08T02:04:09.704Z,18.10
2019-03-08T02:04:48.297Z,17.27
2019-03-08T02:05:27.024Z,15.30
2019-03-08T02:06:05.683Z,15.23
2019-03-08T02:06:44.328Z,16.93
2019-03-08T02:07:22.925Z,16.80
2019-03-08T02:08:01.835Z,16.33
2019-03-08T02:08:40.470Z,17.10
2019-03-08T02:09:19.161Z,14.80
2019-03-08T02:09:57.819Z,17.07
2019-03-08T02:10:36.488Z,16.93
2019-03-08T02:11:15.064Z,16.87
2019-03-08T02:11:53.926Z,16.53
2019-03-08T02:12:32.809Z,16.27
2019-03-08T02:13:11.547Z,16.50
2019-03-08T02:13:50.154Z,16.50
2019-03-08T02:14:28.832Z,15.80
2019-03-08T02:15:07.468Z,17.33
2019-03-08T02:15:46.072Z,15.97
2019-03-08T02:16:24.717Z,16.13
2019-03-08T02:17:03.417Z,16.80
2019-03-08T02:17:42.086Z,16.73
2019-03-08T02:18:20.938Z,17.20
2019-03-08T02:18:59.613Z,16.73
2019-03-08T02:19:38.224Z,16.63
2019-03-08T02:20:18.882Z,16.93
2019-03-08T02:21:06.223Z,18.43
2019-03-08T02:21:37.531Z,17.40
2019-03-08T02:22:16.607Z,18.00
2019-03-08T02:22:55.562Z,17.77
2019-03-08T02:23:34.374Z,16.67
2019-03-08T02:24:13.058Z,16.73
2019-03-08T02:24:51.621Z,16.63
2019-03-08T02:25:30.332Z,17.03
2019-03-08T02:26:09.031Z,16.47
2019-03-08T02:26:47.647Z,17.17
2019-03-08T02:27:26.461Z,16.87
2019-03-08T02:28:05.107Z,17.77
2019-03-08T02:28:43.697Z,17.37
2019-03-08T02:29:22.385Z,17.57
2019-03-08T02:30:01.024Z,17.03
2019-03-08T02:30:39.634Z,17.73
2019-03-08T02:31:18.325Z,17.80
2019-03-08T02:31:56.948Z,17.13
2019-03-08T02:32:35.590Z,17.37
2019-03-08T02:33:14.432Z,17.23
2019-03-08T02:33:53.114Z,17.50
2019-03-08T02:34:31.750Z,16.43
2019-03-08T02:35:10.417Z,16.80
2019-03-08T02:35:49.091Z,17.57
2019-03-08T02:36:28.146Z,17.03
2019-03-08T02:37:06.740Z,15.90
2019-03-08T02:37:45.567Z,17.07
2019-03-08T02:38:24.174Z,17.80
2019-03-08T02:39:02.833Z,17.20
2019-03-08T02:39:41.479Z,16.37
2019-03-08T02:40:36.630Z,16.63
2019-03-08T02:41:15.296Z,15.80
2019-03-08T02:41:53.862Z,17.13
2019-03-08T02:42:32.495Z,17.00
2019-03-08T02:43:13.193Z,17.87
2019-03-08T02:43:51.822Z,16.70
2019-03-08T02:44:30.468Z,16.63
2019-03-08T02:45:09.542Z,17.20
2019-03-08T02:45:48.225Z,18.43
2019-03-08T02:46:26.878Z,16.73
2019-03-08T02:47:05.516Z,16.17
2019-03-08T02:47:44.195Z,17.93
2019-03-08T02:48:22.821Z,17.17
2019-03-08T02:49:01.379Z,16.60
2019-03-08T02:49:40.058Z,17.23
2019-03-08T02:50:18.963Z,16.23
2019-03-08T02:50:57.648Z,16.20
2019-03-08T02:51:36.312Z,15.90
2019-03-08T02:52:14.938Z,16.70
2019-03-08T02:52:53.562Z,16.60
2019-03-08T02:53:32.108Z,17.20
2019-03-08T02:54:10.714Z,16.60
2019-03-08T02:54:49.613Z,16.33
2019-03-08T02:55:28.223Z,16.90
2019-03-08T02:56:06.860Z,17.23
2019-03-08T02:56:45.444Z,16.30
2019-03-08T02:57:24.089Z,16.57
2019-03-08T02:58:03.163Z,16.20
2019-03-08T02:58:42.073Z,17.37
2019-03-08T02:59:20.880Z,16.90
2019-03-08T02:59:59.529Z,15.57
2019-03-08T03:00:49.390Z,17.13
2019-03-08T03:01:28.075Z,17.03
2019-03-08T03:02:06.763Z,16.40
2019-03-08T03:02:45.434Z,16.13
2019-03-08T03:03:24.042Z,16.20
2019-03-08T03:04:02.729Z,16.67
2019-03-08T03:04:41.369Z,16.33
2019-03-08T03:05:19.955Z,15.50
2019-03-08T03:05:58.594Z,16.13
2019-03-08T03:06:37.228Z,16.20
2019-03-08T03:07:15.796Z,16.60
2019-03-08T03:07:54.400Z,16.20
2019-03-08T03:08:33.091Z,16.47
2019-03-08T03:09:11.670Z,16.00
2019-03-08T03:09:50.345Z,15.50
2019-03-08T03:10:28.979Z,16.20
2019-03-08T03:11:07.603Z,14.80
2019-03-08T03:11:46.328Z,16.27
2019-03-08T03:12:24.930Z,16.50
2019-03-08T03:13:03.819Z,15.90
2019-03-08T03:13:42.470Z,15.53
2019-03-08T03:14:21.136Z,17.07
2019-03-08T03:14:59.839Z,16.27
2019-03-08T03:15:38.446Z,16.47
2019-03-08T03:16:17.083Z,15.80
2019-03-08T03:16:55.781Z,15.43
2019-03-08T03:17:34.407Z,16.40
2019-03-08T03:18:13.027Z,14.50
2019-03-08T03:18:51.715Z,16.57
2019-03-08T03:19:30.352Z,15.50
2019-03-08T03:20:09.298Z,15.20
2019-03-08T03:20:47.953Z,15.30
2019-03-08T03:21:26.538Z,15.20
2019-03-08T03:22:05.214Z,15.50
2019-03-08T03:22:43.888Z,15.50
2019-03-08T03:23:22.786Z,16.57
2019-03-08T03:24:01.414Z,15.93
2019-03-08T03:24:40.079Z,14.43
2019-03-08T03:25:18.770Z,16.07
2019-03-08T03:25:57.414Z,15.90
2019-03-08T03:26:36.144Z,14.53
2019-03-08T03:27:14.753Z,16.40
2019-03-08T03:27:53.475Z,15.33
2019-03-08T03:28:32.082Z,15.90
2019-03-08T03:29:10.748Z,16.37
2019-03-08T03:29:49.313Z,16.03
2019-03-08T03:30:27.920Z,15.30
2019-03-08T03:31:06.559Z,15.17
2019-03-08T03:31:45.225Z,15.03
2019-03-08T03:32:23.841Z,14.93
2019-03-08T03:33:02.508Z,15.20
2019-03-08T03:33:41.296Z,14.07
2019-03-08T03:34:19.974Z,15.57
2019-03-08T03:34:58.632Z,16.23
2019-03-08T03:35:37.270Z,15.17
2019-03-08T03:36:15.894Z,15.20
2019-03-08T03:36:54.487Z,15.80
2019-03-08T03:37:33.172Z,14.13
2019-03-08T03:38:11.844Z,14.70
2019-03-08T03:38:50.498Z,14.07
2019-03-08T03:39:29.084Z,16.57
2019-03-08T03:40:08.366Z,14.90
2019-03-08T03:40:46.986Z,15.53
2019-03-08T03:41:25.699Z,14.23
2019-03-08T03:42:04.350Z,14.23
2019-03-08T03:42:43.007Z,14.50
2019-03-08T03:43:21.605Z,14.87
2019-03-08T03:44:00.509Z,15.90
2019-03-08T03:44:39.144Z,14.53
2019-03-08T03:45:17.760Z,15.30
2019-03-08T03:45:56.386Z,14.90
2019-03-08T03:46:35.058Z,14.10
2019-03-08T03:47:13.708Z,14.40
2019-03-08T03:47:52.380Z,14.67
2019-03-08T03:48:31.273Z,14.67
2019-03-08T03:49:09.888Z,13.17
2019-03-08T03:49:48.560Z,14.37
2019-03-08T03:50:27.244Z,14.20
2019-03-08T03:51:05.911Z,13.27
2019-03-08T03:51:44.514Z,14.83
2019-03-08T03:52:23.157Z,14.07
2019-03-08T03:53:01.776Z,15.07
2019-03-08T03:53:40.485Z,14.47
2019-03-08T03:54:19.047Z,13.40
2019-03-08T03:54:57.641Z,13.70
2019-03-08T03:55:36.248Z,13.27
2019-03-08T03:56:14.867Z,14.80
2019-03-08T03:56:53.616Z,14.43
2019-03-08T03:57:32.251Z,14.47
2019-03-08T03:58:10.831Z,14.60
2019-03-08T03:58:49.723Z,14.50
2019-03-08T03:59:28.361Z,14.40
2019-03-08T04:00:07.052Z,14.10
2019-03-08T04:00:45.741Z,13.87
2019-03-08T04:01:37.362Z,14.50
2019-03-08T04:02:16.117Z,13.53
2019-03-08T04:02:54.693Z,14.70
2019-03-08T04:03:33.386Z,14.10
2019-03-08T04:04:11.969Z,14.10
2019-03-08T04:04:50.644Z,14.03
2019-03-08T04:05:29.306Z,13.73
2019-03-08T04:06:07.925Z,14.40
2019-03-08T04:06:46.743Z,14.07
2019-03-08T04:07:25.411Z,14.33
2019-03-08T04:08:04.002Z,12.97
2019-03-08T04:08:42.693Z,14.37
2019-03-08T04:09:21.218Z,14.57
2019-03-08T04:09:59.817Z,14.20
2019-03-08T04:10:38.468Z,14.40
2019-03-08T04:11:17.054Z,15.03
2019-03-08T04:11:55.636Z,13.70
2019-03-08T04:12:34.521Z,13.10
2019-03-08T04:13:13.165Z,14.80
2019-03-08T04:13:51.790Z,13.40
2019-03-08T04:14:30.419Z,14.00
2019-03-08T04:15:11.517Z,12.93
2019-03-08T04:15:50.119Z,14.00
2019-03-08T04:16:28.837Z,12.90
2019-03-08T04:17:07.570Z,12.97
2019-03-08T04:17:46.276Z,13.93
2019-03-08T04:18:24.950Z,13.57
2019-03-08T04:19:03.560Z,13.33
2019-03-08T04:19:42.224Z,12.80
2019-03-08T04:20:20.819Z,13.10
2019-03-08T04:20:59.449Z,13.37
2019-03-08T04:21:42.143Z,13.27
2019-03-08T04:22:20.925Z,12.93
2019-03-08T04:22:59.562Z,13.27
2019-03-08T04:23:38.560Z,13.23
2019-03-08T04:24:17.219Z,12.60
2019-03-08T04:24:56.020Z,13.13
2019-03-08T04:25:34.610Z,12.60
2019-03-08T04:26:13.448Z,13.47
2019-03-08T04:26:52.154Z,13.80
2019-03-08T04:27:30.915Z,12.53
2019-03-08T04:28:09.572Z,13.80
2019-03-08T04:28:48.248Z,13.87
2019-03-08T04:29:26.790Z,14.37
2019-03-08T04:30:05.429Z,14.70
2019-03-08T04:30:47.966Z,12.93
2019-03-08T04:31:26.617Z,13.63
2019-03-08T04:32:05.917Z,13.80
2019-03-08T04:32:45.364Z,14.63
2019-03-08T04:33:24.169Z,14.13
2019-03-08T04:34:04.095Z,13.73
2019-03-08T04:34:42.943Z,14.50
2019-03-08T04:35:21.737Z,13.60
2019-03-08T04:36:00.996Z,14.80
2019-03-08T04:36:39.719Z,14.10
2019-03-08T04:37:18.894Z,13.77
2019-03-08T04:37:57.868Z,14.10
2019-03-08T04:38:36.567Z,14.70
2019-03-08T04:39:15.217Z,14.07
2019-03-08T04:39:53.803Z,16.37
2019-03-08T04:40:32.419Z,15.43
2019-03-08T04:41:11.063Z,15.83
2019-03-08T04:41:49.703Z,15.70
2019-03-08T04:42:28.411Z,16.67
2019-03-08T04:43:07.084Z,15.27
2019-03-08T04:43:45.686Z,16.00
2019-03-08T04:44:24.315Z,15.47
2019-03-08T04:45:02.987Z,15.40
2019-03-08T04:45:41.850Z,17.90
2019-03-08T04:46:20.541Z,16.47
2019-03-08T04:46:59.234Z,15.87
2019-03-08T04:47:37.974Z,15.80
2019-03-08T04:48:16.583Z,16.03
2019-03-08T04:48:55.205Z,15.73
2019-03-08T04:49:33.805Z,15.77
2019-03-08T04:50:13.192Z,14.80
2019-03-08T04:50:51.837Z,15.27
2019-03-08T04:51:30.525Z,16.63
2019-03-08T04:52:09.184Z,15.87
2019-03-08T04:52:47.755Z,15.63
2019-03-08T04:53:26.474Z,15.87
2019-03-08T04:54:05.366Z,15.73
2019-03-08T04:54:43.951Z,16.23
2019-03-08T04:55:22.602Z,15.43
2019-03-08T04:56:01.383Z,16.17
2019-03-08T04:56:40.032Z,14.87
2019-03-08T04:57:18.693Z,15.43
2019-03-08T04:57:57.300Z,15.50
2019-03-08T04:58:35.972Z,15.77
2019-03-08T04:59:14.573Z,15.23
2019-03-08T04:59:53.215Z,15.30
2019-03-08T05:00:32.064Z,15.70
2019-03-08T05:01:10.607Z,15.17
2019-03-08T05:01:49.281Z,15.60
2019-03-08T05:02:27.943Z,14.93
2019-03-08T05:03:06.523Z,15.33
2019-03-08T05:03:45.204Z,15.60
2019-03-08T05:04:23.770Z,14.87
2019-03-08T05:05:02.359Z,14.87
2019-03-08T05:05:41.036Z,15.07
2019-03-08T05:06:19.701Z,15.73
2019-03-08T05:06:58.341Z,15.13
2019-03-08T05:07:36.970Z,14.70
2019-03-08T05:08:15.621Z,15.90
2019-03-08T05:08:54.348Z,15.60
2019-03-08T05:09:33.011Z,15.60
2019-03-08T05:10:13.018Z,15.07
2019-03-08T05:10:51.963Z,14.63
2019-03-08T05:11:30.550Z,15.30
2019-03-08T05:12:09.215Z,14.83
2019-03-08T05:12:47.826Z,15.40
2019-03-08T05:13:26.430Z,15.93
2019-03-08T05:14:05.048Z,15.63
2019-03-08T05:14:43.695Z,15.40
2019-03-08T05:15:22.620Z,16.27
2019-03-08T05:16:01.260Z,15.40
2019-03-08T05:16:39.849Z,13.87
2019-03-08T05:17:18.532Z,14.93
2019-03-08T05:17:58.430Z,14.93
2019-03-08T05:18:37.264Z,15.50
2019-03-08T05:19:15.919Z,14.40
2019-03-08T05:19:54.580Z,14.30
2019-03-08T05:20:33.183Z,13.67
2019-03-08T05:21:11.830Z,15.03
2019-03-08T05:21:50.438Z,14.80
2019-03-08T05:22:29.082Z,14.63
2019-03-08T05:23:07.769Z,15.47
2019-03-08T05:23:46.356Z,15.17
2019-03-08T05:24:24.938Z,15.53
2019-03-08T05:25:03.600Z,14.73
2019-03-08T05:25:42.544Z,15.53
2019-03-08T05:26:21.225Z,14.40
2019-03-08T05:26:59.876Z,15.47
2019-03-08T05:27:38.532Z,15.13
2019-03-08T05:28:17.407Z,15.07
2019-03-08T05:28:56.056Z,14.77
2019-03-08T05:29:34.646Z,15.17
2019-03-08T05:30:13.885Z,15.27
2019-03-08T05:30:52.567Z,14.30
2019-03-08T05:31:31.172Z,13.67
2019-03-08T05:32:09.822Z,14.83
2019-03-08T05:32:48.524Z,14.90
2019-03-08T05:33:27.105Z,14.20
2019-03-08T05:34:05.803Z,15.93
2019-03-08T05:34:44.564Z,15.47
2019-03-08T05:35:23.223Z,15.73
2019-03-08T05:36:02.090Z,16.07
2019-03-08T05:36:40.670Z,15.90
2019-03-08T05:37:19.365Z,15.10
2019-03-08T05:37:58.121Z,15.17
2019-03-08T05:38:36.758Z,14.63
2019-03-08T05:39:18.577Z,14.47
2019-03-08T05:39:57.217Z,14.90
2019-03-08T05:40:36.144Z,14.97
2019-03-08T05:41:14.744Z,13.90
2019-03-08T05:41:53.625Z,16.90
2019-03-08T05:42:32.320Z,14.67
2019-03-08T05:43:10.892Z,14.47
2019-03-08T05:43:49.579Z,13.70
2019-03-08T05:44:28.175Z,14.07
2019-03-08T05:45:07.163Z,14.80
2019-03-08T05:45:45.781Z,14.20
2019-03-08T05:46:24.449Z,14.37
2019-03-08T05:47:03.088Z,13.90
2019-03-08T05:47:41.704Z,14.87
2019-03-08T05:48:20.315Z,14.40
2019-03-08T05:48:59.005Z,13.90
2019-03-08T05:49:37.608Z,14.20
2019-03-08T05:50:16.222Z,13.90
2019-03-08T05:50:55.198Z,14.87
2019-03-08T05:51:33.808Z,14.47
2019-03-08T05:52:12.418Z,14.80
2019-03-08T05:52:51.056Z,14.13
2019-03-08T05:53:29.663Z,14.00
2019-03-08T05:54:08.277Z,14.00
2019-03-08T05:54:46.911Z,14.67
2019-03-08T05:55:25.865Z,13.20
2019-03-08T05:56:04.559Z,14.20
2019-03-08T05:56:43.182Z,14.87
2019-03-08T05:57:21.868Z,13.83
2019-03-08T05:58:00.484Z,13.90
2019-03-08T05:58:39.161Z,14.50
2019-03-08T05:59:17.842Z,13.43
2019-03-08T05:59:56.534Z,13.90
2019-03-08T06:00:35.740Z,14.17
2019-03-08T06:01:14.693Z,13.80
2019-03-08T06:01:53.291Z,13.30
2019-03-08T06:02:31.967Z,14.67
2019-03-08T06:03:10.532Z,13.10
2019-03-08T06:03:49.179Z,13.90
2019-03-08T06:04:27.871Z,13.87
2019-03-08T06:05:06.459Z,14.67
2019-03-08T06:05:45.316Z,13.43
2019-03-08T06:06:26.037Z,13.33
2019-03-08T06:07:04.014Z,13.30
2019-03-08T06:07:42.668Z,14.30
2019-03-08T06:08:21.263Z,13.07
2019-03-08T06:08:59.886Z,14.00
2019-03-08T06:09:38.520Z,13.03
2019-03-08T06:10:38.531Z,14.00
2019-03-08T06:11:17.183Z,14.17
2019-03-08T06:11:55.843Z,14.50
2019-03-08T06:12:34.508Z,14.13
2019-03-08T06:13:13.134Z,13.80
2019-03-08T06:13:52.045Z,13.87
2019-03-08T06:14:30.658Z,13.17
2019-03-08T06:15:09.420Z,14.53
2019-03-08T06:15:48.080Z,13.10
2019-03-08T06:16:26.718Z,13.20
2019-03-08T06:17:05.323Z,13.40
2019-03-08T06:17:44.029Z,13.40
2019-03-08T06:18:22.969Z,14.07
2019-03-08T06:19:01.632Z,12.67
2019-03-08T06:19:40.300Z,12.63
2019-03-08T06:20:18.881Z,13.20
2019-03-08T06:20:57.480Z,13.20
2019-03-08T06:21:36.180Z,13.60
2019-03-08T06:22:14.883Z,13.00
2019-03-08T06:22:53.448Z,13.50
2019-03-08T06:23:32.119Z,12.80
2019-03-08T06:24:10.879Z,12.63
2019-03-08T06:24:49.541Z,12.20
2019-03-08T06:25:28.140Z,13.00
2019-03-08T06:26:06.783Z,12.73
2019-03-08T06:26:45.448Z,12.30
2019-03-08T06:27:24.145Z,13.00
2019-03-08T06:28:02.821Z,12.03
2019-03-08T06:28:41.501Z,12.93
2019-03-08T06:29:20.125Z,13.03
2019-03-08T06:29:58.806Z,12.03
2019-03-08T06:30:37.440Z,11.87
2019-03-08T06:31:16.029Z,12.43
2019-03-08T06:31:54.610Z,12.90
2019-03-08T06:32:33.216Z,12.90
2019-03-08T06:33:11.821Z,12.60
2019-03-08T06:33:50.496Z,12.70
2019-03-08T06:34:29.491Z,13.53
2019-03-08T06:35:08.092Z,13.00
2019-03-08T06:35:46.830Z,12.00
2019-03-08T06:36:25.485Z,12.43
2019-03-08T06:37:04.185Z,12.83
2019-03-08T06:37:42.873Z,12.67
2019-03-08T06:38:21.497Z,12.07
2019-03-08T06:39:00.172Z,12.70
2019-03-08T06:39:38.764Z,12.50
2019-03-08T06:40:17.435Z,12.90
2019-03-08T06:40:56.216Z,13.20
2019-03-08T06:41:34.856Z,12.17
2019-03-08T06:42:13.512Z,13.00
2019-03-08T06:42:52.125Z,13.50
2019-03-08T06:43:30.727Z,11.87
2019-03-08T06:44:09.395Z,11.83
2019-03-08T06:44:48.166Z,11.70
2019-03-08T06:45:26.864Z,12.13
2019-03-08T06:46:05.437Z,12.60
2019-03-08T06:46:44.079Z,12.57
2019-03-08T06:47:22.807Z,12.40
2019-03-08T06:48:01.400Z,11.00
2019-03-08T06:48:40.031Z,12.97
2019-03-08T06:49:18.684Z,12.03
2019-03-08T06:49:57.269Z,11.00
2019-03-08T06:50:35.941Z,11.27
2019-03-08T06:51:14.577Z,13.17
2019-03-08T06:51:53.228Z,12.67
2019-03-08T06:52:31.843Z,12.10
2019-03-08T06:53:10.497Z,11.83
2019-03-08T06:53:49.071Z,12.23
2019-03-08T06:54:27.648Z,11.90
2019-03-08T06:55:06.506Z,12.33
2019-03-08T06:55:45.195Z,12.13
2019-03-08T06:56:23.868Z,11.87
2019-03-08T06:57:02.438Z,12.87
2019-03-08T06:57:41.052Z,12.20
2019-03-08T06:58:28.971Z,12.13
2019-03-08T06:59:25.623Z,12.33
2019-03-08T07:00:11.293Z,12.07
2019-03-08T07:01:23.341Z,11.70
2019-03-08T07:02:02.304Z,12.20
2019-03-08T07:02:40.964Z,12.00
2019-03-08T07:03:19.639Z,11.67
2019-03-08T07:03:58.508Z,11.90
2019-03-08T07:04:37.161Z,11.70
2019-03-08T07:05:15.854Z,11.60
2019-03-08T07:05:54.539Z,11.40
2019-03-08T07:06:33.560Z,12.13
2019-03-08T07:07:12.109Z,12.73
2019-03-08T07:07:50.700Z,11.53
2019-03-08T07:08:29.301Z,11.90
2019-03-08T07:09:08.582Z,11.80
2019-03-08T07:09:47.247Z,11.17
2019-03-08T07:10:25.884Z,12.37
2019-03-08T07:11:04.668Z,11.50
2019-03-08T07:11:43.398Z,11.07
2019-03-08T07:12:21.991Z,11.53
2019-03-08T07:13:03.509Z,11.57
2019-03-08T07:13:40.645Z,11.97
2019-03-08T07:14:19.329Z,11.63
2019-03-08T07:14:57.991Z,12.40
2019-03-08T07:15:36.643Z,11.40
2019-03-08T07:16:15.344Z,12.27
2019-03-08T07:16:54.286Z,12.33
2019-03-08T07:17:32.894Z,11.40
2019-03-08T07:18:12.904Z,12.93
2019-03-08T07:18:51.869Z,12.07
2019-03-08T07:19:30.560Z,12.27
2019-03-08T07:20:19.620Z,13.07
2019-03-08T07:21:05.391Z,11.23
2019-03-08T07:21:52.996Z,12.20
2019-03-08T07:22:47.811Z,11.20
2019-03-08T07:23:47.524Z,12.20
2019-03-08T07:24:42.656Z,11.47
2019-03-08T07:25:37.646Z,11.80
2019-03-08T07:26:39.965Z,11.53
2019-03-08T07:27:48.414Z,12.30
2019-03-08T07:28:57.453Z,12.20
2019-03-08T07:29:52.683Z,11.70
2019-03-08T07:30:46.653Z,11.10
2019-03-08T07:31:52.582Z,12.03
2019-03-08T07:32:55.738Z,10.70
2019-03-08T07:33:58.420Z,12.13
2019-03-08T07:34:43.453Z,11.07
2019-03-08T07:35:35.650Z,10.80
2019-03-08T07:36:24.836Z,10.75
2019-03-08T07:37:20.099Z,11.83
2019-03-08T07:38:25.481Z,12.00
2019-03-08T07:39:25.009Z,11.00
2019-03-08T07:40:23.136Z,11.80
2019-03-08T07:41:16.151Z,11.73
2019-03-08T07:42:20.855Z,11.27
2019-03-08T07:43:05.658Z,12.23
2019-03-08T07:44:11.311Z,11.97
2019-03-08T07:45:10.750Z,12.10
2019-03-08T07:46:12.957Z,11.50
2019-03-08T07:47:21.384Z,11.60
2019-03-08T07:48:26.997Z,11.30
2019-03-08T07:49:23.708Z,12.07
2019-03-08T07:50:23.610Z,11.10
2019-03-08T07:51:29.038Z,11.27
2019-03-08T07:52:19.992Z,11.40
2019-03-08T07:53:13.109Z,11.23
2019-03-08T07:54:00.771Z,11.40
2019-03-08T07:55:03.475Z,11.97
2019-03-08T07:56:00.136Z,12.73
2019-03-08T07:56:44.979Z,12.80
2019-03-08T07:57:44.710Z,12.93
2019-03-08T07:58:59.258Z,13.00
2019-03-08T07:59:53.343Z,14.37
2019-03-08T08:00:47.035Z,13.97
2019-03-08T08:01:46.917Z,12.87
2019-03-08T08:02:49.436Z,14.00
2019-03-08T08:03:39.700Z,13.10
2019-03-08T08:04:36.334Z,14.00
2019-03-08T08:05:33.415Z,12.70
2019-03-08T08:06:22.934Z,14.30
2019-03-08T08:07:16.688Z,14.03
2019-03-08T08:08:19.182Z,14.00
2019-03-08T08:09:15.854Z,13.13
2019-03-08T08:10:03.571Z,13.03
2019-03-08T08:10:55.272Z,12.77
2019-03-08T08:11:51.884Z,13.43
2019-03-08T08:12:57.732Z,12.33
2019-03-08T08:13:49.991Z,12.90
2019-03-08T08:14:46.339Z,11.97
2019-03-08T08:15:46.718Z,12.17
2019-03-08T08:16:40.569Z,12.57
2019-03-08T08:17:26.652Z,12.33
2019-03-08T08:18:29.103Z,12.83
2019-03-08T08:19:20.246Z,13.07
2019-03-08T08:20:16.804Z,13.40
2019-03-08T08:21:18.196Z,12.97
2019-03-08T08:22:23.135Z,13.03
2019-03-08T08:23:34.005Z,12.60
2019-03-08T08:24:12.265Z,13.83
2019-03-08T08:25:00.938Z,12.13
2019-03-08T08:25:55.852Z,12.17
2019-03-08T08:27:07.564Z,12.87
2019-03-08T08:28:06.966Z,12.90
2019-03-08T08:29:01.511Z,12.07
2019-03-08T08:30:00.927Z,12.33
2019-03-08T08:30:54.239Z,12.40
2019-03-08T08:31:40.940Z,11.80
2019-03-08T08:32:37.625Z,12.80
2019-03-08T08:33:43.500Z,12.00
2019-03-08T08:34:44.077Z,11.93
2019-03-08T08:35:40.683Z,12.00
2019-03-08T08:36:52.250Z,12.73
2019-03-08T08:37:54.986Z,12.10
2019-03-08T08:38:45.599Z,12.40
2019-03-08T08:39:48.243Z,12.80
2019-03-08T08:40:43.467Z,11.87
2019-03-08T08:41:43.439Z,13.30
2019-03-08T08:42:29.669Z,13.10
2019-03-08T08:43:26.286Z,12.17
2019-03-08T08:44:28.926Z,11.30
2019-03-08T08:45:24.310Z,12.17
2019-03-08T08:46:18.411Z,12.73
2019-03-08T08:47:13.554Z,12.50
2019-03-08T08:48:10.316Z,11.23
2019-03-08T08:49:12.943Z,12.10
2019-03-08T08:50:13.092Z,11.60